Terminal Aerodrome Forecast
Issued by NWS

Home | Current Version | Previous Version | Text Only | Print | Product List | Glossary On
Versions: 1 2 3 4 5 6 7 8 9 10 11 12 13 14 15 16 17 18 19 20 21 22 23 24 25 26 27 28 29 30 31 32 33 34 35 36 37 38 39 40 41 42 43 44 45 46 47
000
FTUS45 KCYS 181205 AAA
TAFRWL
TAF AMD
KRWL 181205Z 1812/1912 07007KT P6SM OVC017
      TEMPO 1812/1816 3SM -SN BR OVC007
     FM181600 32010KT 5SM -RASN BKN009 OVC015
     FM190100 36020G31KT P6SM OVC015=

USA.gov is the U.S. government's official web portal to all federal, state and local government web resources and services.